createdAt,value
2019-02-02T00:03:23.605Z,2.20
2019-02-02T00:08:28.518Z,2.30
2019-02-02T00:13:33.778Z,2.20
2019-02-02T00:18:38.785Z,2.20
2019-02-02T00:23:43.774Z,2.20
2019-02-02T00:28:49.156Z,2.20
2019-02-02T00:33:54.177Z,2.30
2019-02-02T00:38:59.402Z,2.40
2019-02-02T00:44:05.121Z,2.20
2019-02-02T00:49:10.296Z,1.90
2019-02-02T00:54:15.307Z,1.90
2019-02-02T00:59:20.761Z,2.00
2019-02-02T01:04:25.714Z,2.10
2019-02-02T01:09:31.221Z,2.20
2019-02-02T01:14:36.529Z,2.10
2019-02-02T01:19:41.388Z,2.00
2019-02-02T01:24:47.083Z,2.00
2019-02-02T01:29:52.343Z,1.80
2019-02-02T01:34:57.552Z,2.10
2019-02-02T01:40:02.773Z,2.20
2019-02-02T01:45:10.633Z,2.20
2019-02-02T01:50:17.081Z,2.20
2019-02-02T01:55:22.181Z,2.20
2019-02-02T02:00:29.104Z,2.20
2019-02-02T02:05:34.721Z,2.10
2019-02-02T02:10:39.682Z,2.10
2019-02-02T02:15:44.857Z,2.20
2019-02-02T02:20:50.303Z,2.40
2019-02-02T02:25:55.309Z,2.40
2019-02-02T02:31:00.216Z,2.50
2019-02-02T02:36:05.266Z,2.40
2019-02-02T02:41:10.500Z,2.40
2019-02-02T02:46:15.693Z,2.30
2019-02-02T02:51:21.043Z,2.10
2019-02-02T02:56:26.020Z,2.00
2019-02-02T03:01:31.022Z,2.30
2019-02-02T03:06:36.265Z,2.40
2019-02-02T03:11:41.373Z,2.30
2019-02-02T03:16:46.354Z,2.40
2019-02-02T03:21:51.649Z,2.40
2019-02-02T03:26:56.602Z,2.30
2019-02-02T03:32:01.842Z,2.20
2019-02-02T03:37:06.904Z,2.20
2019-02-02T03:42:11.842Z,2.20
2019-02-02T03:47:17.069Z,2.20
2019-02-02T03:52:22.547Z,2.10
2019-02-02T03:57:27.480Z,2.10
2019-02-02T04:02:32.490Z,2.10
2019-02-02T04:07:37.500Z,2.00
2019-02-02T04:12:42.546Z,2.00
2019-02-02T04:17:47.466Z,2.00
2019-02-02T04:22:52.704Z,2.00
2019-02-02T04:27:58.142Z,1.90
2019-02-02T04:33:03.513Z,2.00
2019-02-02T04:38:08.550Z,1.90
2019-02-02T04:43:13.475Z,1.70
2019-02-02T04:48:18.768Z,1.70
2019-02-02T04:53:24.010Z,1.80
2019-02-02T04:58:29.222Z,1.80
2019-02-02T05:03:34.335Z,1.80
2019-02-02T05:08:39.667Z,2.00
2019-02-02T05:13:44.927Z,2.10
2019-02-02T05:18:50.154Z,2.20
2019-02-02T05:23:55.157Z,2.20
2019-02-02T05:29:00.256Z,2.30
2019-02-02T05:34:05.312Z,0.50
2019-02-02T05:39:10.588Z,2.20
2019-02-02T05:44:16.206Z,2.20
2019-02-02T05:49:21.614Z,2.20
2019-02-02T05:54:27.377Z,2.30
2019-02-02T05:59:32.285Z,2.30
2019-02-02T06:04:37.294Z,2.30
2019-02-02T06:09:42.638Z,2.50
2019-02-02T06:14:47.614Z,2.50
2019-02-02T06:19:52.656Z,2.40
2019-02-02T06:24:57.598Z,2.10
2019-02-02T06:30:04.543Z,2.00
2019-02-02T06:35:10.946Z,1.90
2019-02-02T06:40:16.469Z,2.00
2019-02-02T06:45:29.958Z,2.00
2019-02-02T06:50:35.059Z,1.90
2019-02-02T06:55:40.370Z,2.00
2019-02-02T07:00:45.303Z,2.00
2019-02-02T07:05:50.450Z,1.90
2019-02-02T07:10:55.517Z,1.90
2019-02-02T07:16:00.601Z,2.00
2019-02-02T07:21:06.026Z,2.20
2019-02-02T07:26:11.301Z,2.20
2019-02-02T07:31:16.533Z,2.30
2019-02-02T07:36:21.822Z,2.40
2019-02-02T07:41:27.080Z,2.70
2019-02-02T07:46:32.857Z,2.80
2019-02-02T07:51:37.988Z,2.70
2019-02-02T07:56:43.440Z,2.40
2019-02-02T08:01:48.467Z,2.30
2019-02-02T08:06:53.613Z,2.20
2019-02-02T08:11:58.871Z,2.20
2019-02-02T08:17:04.202Z,2.60
2019-02-02T08:22:09.101Z,2.60
2019-02-02T08:27:14.049Z,2.70
2019-02-02T08:32:19.198Z,2.60
2019-02-02T08:37:24.157Z,2.50
2019-02-02T08:42:29.405Z,2.30
2019-02-02T08:47:34.568Z,2.20
2019-02-02T08:52:40.395Z,2.20
2019-02-02T08:57:45.739Z,2.10
2019-02-02T09:02:51.003Z,2.00
2019-02-02T09:07:56.010Z,2.00
2019-02-02T09:13:01.282Z,2.00
2019-02-02T09:18:06.473Z,2.00
2019-02-02T09:23:11.429Z,1.90
2019-02-02T09:28:16.361Z,2.00
2019-02-02T09:33:21.500Z,2.10
2019-02-02T09:38:26.657Z,2.10
2019-02-02T09:43:31.846Z,2.00
2019-02-02T09:48:37.176Z,2.10
2019-02-02T09:53:42.010Z,2.10
2019-02-02T09:58:47.050Z,2.20
2019-02-02T10:03:52.203Z,2.10
2019-02-02T10:08:57.598Z,2.10
2019-02-02T10:14:02.743Z,2.20
2019-02-02T10:19:07.701Z,2.20
2019-02-02T10:24:13.132Z,2.20
2019-02-02T10:29:18.266Z,2.30
2019-02-02T10:34:23.453Z,2.30
2019-02-02T10:39:29.146Z,2.50
2019-02-02T10:44:34.265Z,2.60
2019-02-02T10:49:39.493Z,2.60
2019-02-02T10:54:44.376Z,2.70
2019-02-02T10:59:49.469Z,2.70
2019-02-02T11:04:55.023Z,2.60
2019-02-02T11:10:00.401Z,2.70
2019-02-02T11:15:07.826Z,2.60
2019-02-02T11:20:17.583Z,2.60
2019-02-02T11:25:22.377Z,2.60
2019-02-02T11:30:27.718Z,2.60
2019-02-02T11:35:32.888Z,2.40
2019-02-02T11:40:38.236Z,2.30
2019-02-02T11:45:43.516Z,2.50
2019-02-02T11:50:49.219Z,2.50
2019-02-02T11:55:55.698Z,2.40
2019-02-02T12:01:01.121Z,2.70
2019-02-02T12:06:06.891Z,2.80
2019-02-02T12:11:12.192Z,2.60
2019-02-02T12:16:17.220Z,2.60
2019-02-02T12:21:22.122Z,2.60
2019-02-02T12:26:27.378Z,2.60
2019-02-02T12:31:32.372Z,2.50
2019-02-02T12:36:37.458Z,2.60
2019-02-02T12:41:42.810Z,2.60
2019-02-02T12:46:47.773Z,2.50
2019-02-02T12:51:53.585Z,2.80
2019-02-02T12:56:58.913Z,2.70
2019-02-02T13:02:04.048Z,2.80
2019-02-02T13:07:09.116Z,2.70
2019-02-02T13:12:14.538Z,2.80
2019-02-02T13:17:19.856Z,4.50
2019-02-02T13:22:25.147Z,2.80
2019-02-02T13:27:30.448Z,2.60
2019-02-02T13:39:09.905Z,2.70
2019-02-02T13:44:53.545Z,2.70
2019-02-02T13:50:13.067Z,2.40
2019-02-02T13:56:28.064Z,2.30
2019-02-02T14:01:41.787Z,2.30
2019-02-02T14:06:41.296Z,2.30
2019-02-02T14:11:47.301Z,2.20
2019-02-02T14:16:52.502Z,2.40
2019-02-02T14:21:57.702Z,2.30
2019-02-02T14:27:02.577Z,2.20
2019-02-02T14:32:07.776Z,2.20
2019-02-02T14:37:12.969Z,2.20
2019-02-02T14:42:18.397Z,2.20
2019-02-02T14:47:23.880Z,2.00
2019-02-02T14:52:29.315Z,2.10
2019-02-02T14:57:34.511Z,2.50
2019-02-02T15:02:39.866Z,2.40
2019-02-02T15:07:45.244Z,2.40
2019-02-02T15:12:50.653Z,2.50
2019-02-02T15:17:55.617Z,2.70
2019-02-02T15:23:00.903Z,2.60
2019-02-02T15:28:08.667Z,2.50
2019-02-02T15:33:13.875Z,2.50
2019-02-02T15:38:19.183Z,2.50
2019-02-02T15:43:24.497Z,2.60
2019-02-02T15:48:29.733Z,2.70
2019-02-02T15:53:35.126Z,2.60
2019-02-02T15:58:44.852Z,2.60
2019-02-02T16:03:50.179Z,2.60
2019-02-02T16:08:55.766Z,2.50
2019-02-02T16:14:00.747Z,2.50
2019-02-02T16:19:06.150Z,2.60
2019-02-02T16:24:12.201Z,2.60
2019-02-02T16:29:17.417Z,2.60
2019-02-02T16:34:24.417Z,2.50
2019-02-02T16:39:29.754Z,2.60
2019-02-02T16:44:35.186Z,2.40
2019-02-02T16:49:40.174Z,2.30
2019-02-02T16:54:46.173Z,2.30
2019-02-02T16:59:52.160Z,2.20
2019-02-02T17:04:57.177Z,2.10
2019-02-02T17:10:02.281Z,2.10
2019-02-02T17:15:07.798Z,1.70
2019-02-02T17:20:15.337Z,1.60
2019-02-02T17:25:22.576Z,1.70
2019-02-02T17:30:28.310Z,1.70
2019-02-02T17:35:38.119Z,1.60
2019-02-02T17:40:43.455Z,1.70
2019-02-02T17:45:49.285Z,1.50
2019-02-02T17:50:54.777Z,1.60
2019-02-02T17:56:01.082Z,1.60
2019-02-02T18:01:07.041Z,1.60
2019-02-02T18:06:12.459Z,1.60
2019-02-02T18:11:20.241Z,1.60
2019-02-02T18:16:25.480Z,1.70
2019-02-02T18:21:31.213Z,1.40
2019-02-02T18:26:36.461Z,1.50
2019-02-02T18:31:41.746Z,1.50
2019-02-02T18:36:47.613Z,1.50
2019-02-02T18:41:53.989Z,1.50
2019-02-02T18:46:59.761Z,1.40
2019-02-02T18:52:06.240Z,1.30
2019-02-02T18:57:11.781Z,1.50
2019-02-02T19:02:16.821Z,1.50
2019-02-02T19:07:22.400Z,1.50
2019-02-02T19:12:28.094Z,1.40
2019-02-02T19:17:33.256Z,1.30
2019-02-02T19:22:39.049Z,1.30
2019-02-02T19:27:44.531Z,1.40
2019-02-02T19:32:51.690Z,1.40
2019-02-02T19:37:57.502Z,1.40
2019-02-02T19:43:02.632Z,1.40
2019-02-02T19:48:09.169Z,1.30
2019-02-02T19:53:15.170Z,1.30
2019-02-02T19:58:20.220Z,1.30
2019-02-02T20:03:25.706Z,1.30
2019-02-02T20:08:31.027Z,1.30
2019-02-02T20:13:38.566Z,1.30
2019-02-02T20:24:08.945Z,1.30
2019-02-02T20:29:14.912Z,1.40
2019-02-02T20:34:20.345Z,1.40
2019-02-02T20:39:25.606Z,1.20
2019-02-02T20:44:30.891Z,1.20
2019-02-02T20:49:35.945Z,1.20
2019-02-02T20:54:41.129Z,1.20
2019-02-02T20:59:46.161Z,1.10
2019-02-02T21:04:51.192Z,1.10
2019-02-02T21:09:56.484Z,1.10
2019-02-02T21:15:01.936Z,1.10
2019-02-02T21:20:09.907Z,1.10
2019-02-02T21:25:16.645Z,1.10
2019-02-02T21:30:29.716Z,1.10
2019-02-02T21:35:35.100Z,1.10
2019-02-02T21:40:40.072Z,1.10
2019-02-02T21:45:45.679Z,1.10
2019-02-02T21:50:50.821Z,1.10
2019-02-02T21:55:55.941Z,1.10
2019-02-02T22:06:15.114Z,1.10
2019-02-02T22:11:14.929Z,1.10
2019-02-02T22:16:19.924Z,1.20
2019-02-02T22:21:25.025Z,1.20
2019-02-02T22:26:30.317Z,1.30
2019-02-02T22:31:35.189Z,1.40
2019-02-02T22:36:40.448Z,1.40
2019-02-02T22:41:45.748Z,1.40
2019-02-02T22:46:50.659Z,1.40
2019-02-02T22:51:56.158Z,1.40
2019-02-02T22:57:01.105Z,1.50
2019-02-02T23:02:14.405Z,1.50
2019-02-02T23:08:03.286Z,1.60
2019-02-02T23:13:42.416Z,1.60
2019-02-02T23:18:47.734Z,1.50
2019-02-02T23:23:52.760Z,1.50
2019-02-02T23:28:57.998Z,1.50
2019-02-02T23:34:03.353Z,1.50
2019-02-02T23:39:09.567Z,1.40
2019-02-02T23:44:14.845Z,1.40
2019-02-02T23:49:20.118Z,1.50
2019-02-02T23:54:25.161Z,1.50
2019-02-02T23:59:30.358Z,1.50
